Time;durP1;ratioP1;P1;durP2;ratioP2;P2;SDS_P1;SDS_P2;PMS_P1;PMS_P2;Temp;Humidity;BMP_temperature;BMP_pressure;BME280_temperature;BME280_humidity;BME280_pressure;Samples;Min_cycle;Max_cycle;Signal;HPM_P1;HPM_P2
2021/11/12 00:26:15;;;;;;;25.48;18.90;;;22.40;58.60;;;;;;31394354;28;20073;-42
2021/11/12 00:56:22;;;;;;;22.55;17.48;;;23.00;58.90;;;;;;31387349;28;20049;-36
2021/11/12 01:11:26;;;;;;;19.63;15.32;;;22.90;58.80;;;;;;31395690;28;20049;-39
2021/11/12 01:26:28;;;;;;;23.10;14.95;;;22.80;58.90;;;;;;31391586;28;20076;-42
2021/11/12 01:41:32;;;;;;;19.13;15.00;;;22.70;58.70;;;;;;31384843;28;20137;-40
2021/11/12 02:12:05;;;;;;;18.00;13.95;;;22.50;59.30;;;;;;31382301;28;20049;-43
2021/11/12 02:27:13;;;;;;;16.73;12.82;;;22.50;59.40;;;;;;31380371;28;20050;-50
2021/11/12 02:42:16;;;;;;;19.98;13.60;;;22.30;59.90;;;;;;31383997;28;20065;-44
2021/11/12 02:57:20;;;;;;;18.00;13.60;;;22.30;60.00;;;;;;31383869;28;20061;-42
2021/11/12 03:12:22;;;;;;;15.57;12.10;;;22.30;59.90;;;;;;31027775;28;10000677;-43
2021/11/12 05:45:19;;;;;;;10.63;8.85;;;22.40;60.20;;;;;;31392269;28;20060;-37
2021/11/12 06:00:23;;;;;;;9.98;7.90;;;22.30;60.40;;;;;;31388911;28;20069;-38
2021/11/12 06:15:25;;;;;;;9.85;7.60;;;22.20;60.30;;;;;;31385252;28;20049;-37
2021/11/12 06:30:27;;;;;;;12.00;6.55;;;22.50;60.10;;;;;;31385981;28;20879;-43
2021/11/12 07:00:52;;;;;;;19.13;12.40;;;22.40;51.40;;;;;;31371164;28;20049;-42
2021/11/12 07:15:56;;;;;;;17.25;10.00;;;22.00;49.90;;;;;;31375882;28;20049;-48
2021/11/12 07:30:59;;;;;;;34.45;25.13;;;22.20;52.50;;;;;;31373988;28;20045;-45
2021/11/12 08:01:22;;;;;;;17.15;10.07;;;22.40;50.70;;;;;;31371129;28;20037;-41
2021/11/12 09:01:52;;;;;;;8.18;4.38;;;22.00;48.10;;;;;;31391046;28;20041;-41
2021/11/12 09:16:55;;;;;;;9.13;4.30;;;22.40;47.80;;;;;;31393810;28;20052;-42
2021/11/12 09:31:58;;;;;;;8.25;5.03;;;22.60;46.40;;;;;;31504676;28;20049;-42
2021/11/12 09:47:00;;;;;;;21.90;16.50;;;22.50;50.10;;;;;;31509052;28;20053;-41
2021/11/12 10:02:05;;;;;;;23.77;17.30;;;22.30;51.00;;;;;;31507432;28;20093;-38
2021/11/12 10:17:09;;;;;;;13.35;10.25;;;22.10;51.40;;;;;;31507164;28;20048;-35
2021/11/12 10:32:35;;;;;;;10.55;7.28;;;22.00;49.60;;;;;;31510002;28;20056;-34
2021/11/12 10:47:55;;;;;;;11.60;5.07;;;22.00;49.60;;;;;;31498686;28;20140;-36
2021/11/12 11:02:59;;;;;;;9.50;4.13;;;22.40;47.60;;;;;;31424525;28;20065;-36
2021/11/12 11:18:27;;;;;;;20.58;4.25;;;22.50;47.60;;;;;;31488904;28;20048;-41
2021/11/12 11:33:30;;;;;;;29.33;4.57;;;22.50;47.20;;;;;;31496763;28;20052;-40
2021/11/12 11:48:38;;;;;;;17.02;4.00;;;22.60;49.00;;;;;;31493101;28;20108;-39
2021/11/12 12:03:52;;;;;;;15.40;3.85;;;22.50;49.30;;;;;;31436852;28;20061;-38
2021/11/12 12:18:54;;;;;;;13.90;3.60;;;22.40;49.40;;;;;;31472665;28;20115;-48
2021/11/12 13:21:02;;;;;;;10.20;2.35;;;22.20;56.20;;;;;;31513544;28;20029;-39
2021/11/12 13:36:08;;;;;;;5.28;2.38;;;22.20;53.00;;;;;;31515873;28;20049;-42
2021/11/12 13:51:17;;;;;;;2.63;1.90;;;22.30;52.50;;;;;;31513540;28;20090;-44
2021/11/12 14:06:20;;;;;;;10.77;2.33;;;22.20;52.60;;;;;;31508820;28;20064;-37
2021/11/12 14:21:56;;;;;;;4.15;1.88;;;22.60;52.90;;;;;;31488080;28;20045;-38
2021/11/12 14:52:13;;;;;;;9.18;1.90;;;22.90;54.20;;;;;;31409460;28;20058;-39
2021/11/12 15:07:21;;;;;;;17.27;2.77;;;22.90;53.50;;;;;;31430254;28;20095;-43
2021/11/12 15:22:55;;;;;;;13.95;3.55;;;22.70;53.90;;;;;;31466655;28;20041;-39
2021/11/12 15:38:17;;;;;;;5.78;3.15;;;22.60;54.20;;;;;;31366749;28;20072;-39
2021/11/12 16:08:37;;;;;;;7.68;2.95;;;22.30;54.90;;;;;;31368394;28;20073;-40
2021/11/12 16:38:45;;;;;;;10.73;2.80;;;22.90;55.30;;;;;;31357666;28;20113;-43
2021/11/12 21:47:29;;;;;;;73.27;57.40;;;22.50;58.30;;;;;;31034666;28;10000034;-35
2021/11/12 22:02:31;;;;;;;27.88;23.08;;;22.40;58.30;;;;;;31386045;28;20298;-38
2021/11/12 22:17:35;;;;;;;26.08;20.02;;;22.40;58.50;;;;;;31383093;28;20113;-41
2021/11/12 22:32:37;;;;;;;21.40;18.40;;;22.40;58.30;;;;;;31381888;28;20046;-42
2021/11/12 22:47:39;;;;;;;24.65;18.23;;;22.50;58.40;;;;;;31388154;28;20057;-44
2021/11/12 23:02:42;;;;;;;21.05;17.20;;;22.40;58.90;;;;;;31379560;28;20052;-35
2021/11/12 23:17:44;;;;;;;28.30;15.68;;;22.30;59.00;;;;;;31374444;28;20482;-43
2021/11/12 23:32:46;;;;;;;18.95;15.32;;;22.30;59.00;;;;;;31373044;28;20091;-46
2021/11/12 23:47:49;;;;;;;29.95;24.88;;;22.30;59.00;;;;;;31450254;28;20053;-42
